Grand Bend, Canada
Current Conditions -  °F | °C
As of 6:14 PM on Friday 31 Oct 2014 (Local Time) from CYZR Reporting Station
Light Rain Light Rain  
Wind Chill: 29°   Ceiling: 1600
Heat Index: 41°   Visibility: 5mi
Dew Point: 39°   Wind: 32mph
Humidity: 93%   Direction: 10°N
Pressure: 29.93"   Gusts: 41mph
Location:  43.32°N, 81.75°W
Report Text: CYZR 312214Z AUTO 01028G36KT 5SM -RA BR BKN016 OVC023 05/04 A2993 RMK PCPN 0.5MM PAST HR SLP139
Loading
Personal Weather Stations






























Interactive Weather Map
Tropical Storm Tracking
New forecast layout! Learn more

10-Day Weather Forecast

Advertisements
Track Severe Weather on mobile